createdAt,value
2018-04-11T00:01:20.459Z,10.43
2018-04-11T00:03:48.701Z,9.57
2018-04-11T00:06:16.927Z,12.07
2018-04-11T00:08:45.217Z,12.77
2018-04-11T00:11:14.609Z,13.30
2018-04-11T00:13:44.356Z,13.20
2018-04-11T00:16:12.759Z,14.63
2018-04-11T00:18:42.342Z,14.70
2018-04-11T00:21:10.856Z,15.83
2018-04-11T00:23:40.088Z,16.30
2018-04-11T00:26:09.087Z,16.73
2018-04-11T00:28:37.329Z,18.03
2018-04-11T00:31:05.912Z,18.77
2018-04-11T00:33:34.525Z,20.27
2018-04-11T00:36:03.538Z,19.53
2018-04-11T00:38:32.575Z,18.50
2018-04-11T00:41:01.583Z,21.70
2018-04-11T00:43:29.825Z,18.90
2018-04-11T00:45:59.121Z,21.50
2018-04-11T00:48:28.135Z,23.17
2018-04-11T00:50:56.758Z,23.30
2018-04-11T00:53:27.698Z,20.90
2018-04-11T00:55:56.345Z,22.30
2018-04-11T00:58:24.594Z,21.70
2018-04-11T01:00:53.277Z,24.40
2018-04-11T01:03:21.512Z,23.90
2018-04-11T01:05:50.883Z,23.27
2018-04-11T01:08:19.360Z,23.00
2018-04-11T01:10:47.743Z,24.77
2018-04-11T01:13:16.017Z,23.70
2018-04-11T01:15:44.291Z,25.37
2018-04-11T01:18:13.291Z,22.30
2018-04-11T01:20:41.531Z,27.13
2018-04-11T01:23:09.803Z,24.20
2018-04-11T01:25:38.039Z,26.07
2018-04-11T01:28:07.047Z,26.67
2018-04-11T01:30:37.183Z,27.77
2018-04-11T01:33:06.182Z,28.70
2018-04-11T01:35:34.424Z,26.63
2018-04-11T01:38:02.934Z,29.00
2018-04-11T01:40:31.170Z,26.57
2018-04-11T01:43:00.754Z,28.63
2018-04-11T01:45:28.912Z,28.00
2018-04-11T01:47:57.142Z,28.23
2018-04-11T01:50:25.385Z,27.40
2018-04-11T01:52:53.963Z,27.43
2018-04-11T01:55:22.967Z,29.70
2018-04-11T01:57:51.209Z,30.30
2018-04-11T02:00:19.486Z,26.80
2018-04-11T02:02:47.722Z,26.13
2018-04-11T02:05:17.463Z,25.87
2018-04-11T02:07:46.823Z,28.83
2018-04-11T02:10:16.566Z,28.77
2018-04-11T02:12:44.807Z,29.93
2018-04-11T02:15:13.172Z,31.00
2018-04-11T02:17:42.170Z,34.03
2018-04-11T02:20:10.407Z,31.23
2018-04-11T02:22:38.863Z,28.97
2018-04-11T02:25:07.099Z,32.67
2018-04-11T02:27:35.335Z,29.80
2018-04-11T02:30:03.718Z,30.47
2018-04-11T02:32:32.719Z,31.07
2018-04-11T02:35:00.959Z,28.60
2018-04-11T02:37:29.394Z,28.57
2018-04-11T02:39:59.135Z,23.17
2018-04-11T02:42:27.376Z,22.33
2018-04-11T02:44:55.924Z,18.87
2018-04-11T02:47:25.662Z,17.60
2018-04-11T02:49:55.242Z,18.33
2018-04-11T02:52:23.803Z,19.23
2018-04-11T02:54:53.284Z,17.07
2018-04-11T02:57:22.878Z,19.07
2018-04-11T02:59:51.186Z,17.13
2018-04-11T03:02:20.187Z,18.07
2018-04-11T03:04:49.190Z,16.80
2018-04-11T03:07:18.825Z,16.60
2018-04-11T03:09:46.922Z,17.13
2018-04-11T03:12:15.156Z,16.00
2018-04-11T03:14:43.441Z,15.50
2018-04-11T03:17:12.806Z,16.17
2018-04-11T03:19:42.393Z,15.33
2018-04-11T03:22:11.463Z,15.20
2018-04-11T03:24:41.225Z,13.87
2018-04-11T03:27:09.454Z,14.50
2018-04-11T03:29:39.419Z,14.00
2018-04-11T03:32:08.303Z,13.83
2018-04-11T03:34:36.544Z,14.33
2018-04-11T03:37:05.584Z,13.87
2018-04-11T03:39:35.166Z,13.53
2018-04-11T03:42:04.838Z,13.67
2018-04-11T03:44:33.142Z,16.80
2018-04-11T03:47:02.145Z,14.17
2018-04-11T03:49:30.375Z,14.60
2018-04-11T03:51:58.638Z,13.27
2018-04-11T03:54:26.880Z,13.17
2018-04-11T03:56:55.488Z,13.73
2018-04-11T03:59:24.054Z,10.97
2018-04-11T04:01:52.686Z,12.23
2018-04-11T04:04:20.918Z,11.37
2018-04-11T04:06:50.914Z,11.60
2018-04-11T04:09:19.796Z,11.43
2018-04-11T04:11:48.028Z,10.77
2018-04-11T04:14:28.414Z,10.17
2018-04-11T04:17:09.274Z,10.20
2018-04-11T04:19:49.410Z,10.77
2018-04-11T04:22:17.637Z,10.97
2018-04-11T04:24:45.872Z,10.47
2018-04-11T04:27:14.499Z,11.07
2018-04-11T04:29:42.731Z,10.53
2018-04-11T04:32:10.975Z,10.93
2018-04-11T04:34:39.502Z,11.33
2018-04-11T04:37:08.502Z,12.03
2018-04-11T04:39:36.734Z,10.97
2018-04-11T04:42:05.094Z,10.60
2018-04-11T04:44:33.326Z,13.43
2018-04-11T04:47:01.568Z,12.33
2018-04-11T04:49:30.339Z,12.90
2018-04-11T04:51:58.970Z,12.53
2018-04-11T04:54:27.203Z,11.33
2018-04-11T04:56:55.758Z,11.90
2018-04-11T04:59:24.387Z,10.93
2018-04-11T05:01:53.390Z,10.80
2018-04-11T05:04:22.419Z,13.70
2018-04-11T05:06:50.659Z,10.27
2018-04-11T05:09:19.663Z,11.73
2018-04-11T05:11:47.942Z,14.50
2018-04-11T05:14:16.179Z,11.23
2018-04-11T05:16:44.390Z,9.70
2018-04-11T05:19:12.662Z,11.80
2018-04-11T05:21:40.926Z,11.10
2018-04-11T05:24:09.122Z,10.93
2018-04-11T05:26:38.758Z,12.13
2018-04-11T05:29:07.763Z,10.57
2018-04-11T05:31:36.759Z,13.40
2018-04-11T05:34:05.203Z,11.00
2018-04-11T05:36:34.942Z,10.80
2018-04-11T05:39:03.948Z,11.30
2018-04-11T05:41:33.807Z,10.40
2018-04-11T05:44:02.311Z,10.73
2018-04-11T05:46:31.898Z,12.47
2018-04-11T05:49:00.150Z,13.17
2018-04-11T05:51:28.392Z,12.40
2018-04-11T05:53:56.623Z,13.77
2018-04-11T05:56:26.179Z,13.97
2018-04-11T05:58:55.930Z,12.10
2018-04-11T06:01:24.159Z,10.63
2018-04-11T06:03:52.431Z,12.67
2018-04-11T06:06:20.663Z,13.70
2018-04-11T06:08:48.912Z,12.70
2018-04-11T06:11:18.719Z,12.93
2018-04-11T06:13:46.954Z,14.10
2018-04-11T06:16:16.699Z,14.30
2018-04-11T06:18:46.551Z,12.50
2018-04-11T06:21:15.059Z,14.30
2018-04-11T06:23:43.296Z,14.23
2018-04-11T06:26:11.638Z,13.07
2018-04-11T06:28:39.848Z,14.07
2018-04-11T06:31:08.079Z,15.10
2018-04-11T06:33:36.378Z,14.23
2018-04-11T06:36:04.611Z,15.00
2018-04-11T06:38:33.987Z,15.00
2018-04-11T06:41:02.611Z,13.03
2018-04-11T06:43:30.847Z,13.17
2018-04-11T06:45:59.087Z,14.67
2018-04-11T06:48:28.974Z,14.00
2018-04-11T06:50:58.561Z,14.83
2018-04-11T06:53:26.676Z,13.90
2018-04-11T06:55:55.166Z,16.13
2018-04-11T06:58:24.911Z,13.80
2018-04-11T07:00:53.588Z,13.40
2018-04-11T07:03:22.331Z,14.00
2018-04-11T07:05:50.959Z,13.00
2018-04-11T07:08:19.208Z,14.17
2018-04-11T07:10:47.488Z,18.33
2018-04-11T07:13:15.729Z,15.13
2018-04-11T07:15:43.963Z,12.77
2018-04-11T07:18:13.271Z,13.03
2018-04-11T07:20:41.902Z,13.80
2018-04-11T07:23:10.134Z,13.97
2018-04-11T07:25:38.774Z,15.20
2018-04-11T07:28:08.363Z,15.13
2018-04-11T07:30:36.471Z,13.40
2018-04-11T07:33:04.755Z,14.17
2018-04-11T07:35:32.999Z,16.80
2018-04-11T07:38:01.227Z,15.50
2018-04-11T07:40:30.975Z,15.17
2018-04-11T07:43:00.559Z,14.03
2018-04-11T07:45:29.808Z,16.17
2018-04-11T07:47:58.346Z,19.30
2018-04-11T07:50:26.979Z,14.93
2018-04-11T07:52:55.219Z,14.77
2018-04-11T07:55:23.542Z,15.77
2018-04-11T07:57:53.120Z,16.37
2018-04-11T08:00:21.627Z,14.40
2018-04-11T08:02:50.299Z,15.77
2018-04-11T08:05:19.687Z,15.03
2018-04-11T08:07:47.915Z,16.27
2018-04-11T08:10:16.647Z,16.70
2018-04-11T08:12:44.884Z,17.10
2018-04-11T08:15:13.123Z,18.20
2018-04-11T08:17:41.486Z,17.20
2018-04-11T08:20:10.503Z,17.50
2018-04-11T08:22:38.723Z,20.03
2018-04-11T08:25:07.327Z,16.80
2018-04-11T08:27:35.564Z,18.80
2018-04-11T08:30:05.156Z,18.40
2018-04-11T08:32:33.334Z,17.70
2018-04-11T08:35:01.583Z,17.07
2018-04-11T08:37:29.820Z,16.30
2018-04-11T08:39:58.098Z,17.07
2018-04-11T08:42:26.330Z,17.83
2018-04-11T08:44:55.330Z,18.10
2018-04-11T08:47:24.833Z,17.37
2018-04-11T08:49:53.770Z,17.30
2018-04-11T08:52:22.767Z,17.57
2018-04-11T08:54:51.410Z,16.33
2018-04-11T08:57:20.042Z,17.57
2018-04-11T08:59:48.275Z,19.43
2018-04-11T09:02:16.551Z,19.17
2018-04-11T09:04:44.810Z,20.23
2018-04-11T09:07:14.559Z,17.27
2018-04-11T09:09:43.148Z,18.00
2018-04-11T09:12:11.770Z,18.83
2018-04-11T09:14:40.780Z,17.40
2018-04-11T09:17:12.826Z,19.87
2018-04-11T09:19:41.063Z,20.53
2018-04-11T09:22:09.295Z,21.90
2018-04-11T09:24:38.210Z,19.80
2018-04-11T09:27:07.790Z,21.20
2018-04-11T09:29:37.250Z,22.37
2018-04-11T09:32:05.798Z,20.00
2018-04-11T09:34:34.030Z,20.73
2018-04-11T09:37:02.267Z,21.20
2018-04-11T09:39:31.944Z,21.57
2018-04-11T09:42:00.090Z,23.10
2018-04-11T09:44:28.291Z,25.77
2018-04-11T09:46:56.563Z,24.17
2018-04-11T09:49:24.799Z,25.57
2018-04-11T09:51:54.552Z,24.33
2018-04-11T09:54:23.592Z,25.17
2018-04-11T09:56:52.595Z,24.30
2018-04-11T09:59:20.828Z,21.87
2018-04-11T10:01:50.406Z,21.80
2018-04-11T10:04:19.778Z,21.23
2018-04-11T10:06:49.374Z,23.53
2018-04-11T10:09:17.887Z,24.33
2018-04-11T10:11:47.475Z,21.20
2018-04-11T10:14:15.588Z,20.40
2018-04-11T10:16:44.031Z,21.03
2018-04-11T10:19:12.263Z,22.07
2018-04-11T10:21:40.503Z,22.77
2018-04-11T10:24:08.822Z,28.17
2018-04-11T10:26:38.410Z,24.80
2018-04-11T10:29:06.524Z,23.13
2018-04-11T10:31:34.814Z,22.43
2018-04-11T10:34:03.047Z,22.70
2018-04-11T10:36:32.432Z,22.07
2018-04-11T10:39:00.699Z,24.90
2018-04-11T10:41:28.939Z,21.87
2018-04-11T10:43:57.176Z,23.00
2018-04-11T10:46:25.464Z,23.07
2018-04-11T10:48:53.700Z,23.73
2018-04-11T10:51:23.067Z,24.07
2018-04-11T10:53:51.543Z,28.47
2018-04-11T10:56:19.775Z,26.60
2018-04-11T10:58:48.007Z,28.73
2018-04-11T11:01:16.666Z,26.93
2018-04-11T11:03:46.406Z,29.27
2018-04-11T11:06:14.647Z,27.10
2018-04-11T11:08:43.195Z,28.23
2018-04-11T11:11:12.191Z,27.57
2018-04-11T11:13:41.191Z,27.60
2018-04-11T11:16:09.630Z,31.87
2018-04-11T11:18:38.267Z,36.87
2018-04-11T11:21:06.499Z,27.10
2018-04-11T11:23:34.951Z,27.97
2018-04-11T11:26:04.707Z,27.57
2018-04-11T11:28:32.940Z,30.23
2018-04-11T11:31:01.313Z,31.63
2018-04-11T11:33:29.552Z,28.10
2018-04-11T11:35:58.174Z,29.37
2018-04-11T11:38:26.450Z,28.13
2018-04-11T11:40:55.454Z,25.87
2018-04-11T11:43:23.694Z,27.13
2018-04-11T11:45:53.670Z,23.20
2018-04-11T11:48:21.759Z,23.73
2018-04-11T11:50:49.995Z,25.37
2018-04-11T11:53:18.400Z,25.70
2018-04-11T11:55:46.638Z,25.87
2018-04-11T11:58:14.875Z,26.93
2018-04-11T12:00:44.315Z,27.37
2018-04-11T12:03:12.947Z,28.77
2018-04-11T12:05:41.191Z,31.70
2018-04-11T12:08:09.651Z,29.23
2018-04-11T12:10:38.339Z,28.97
2018-04-11T12:13:07.918Z,31.77
2018-04-11T12:15:37.206Z,33.07
2018-04-11T12:18:05.444Z,31.10
2018-04-11T12:20:33.679Z,31.23
2018-04-11T12:23:02.115Z,31.23
2018-04-11T12:25:30.357Z,36.20
2018-04-11T12:27:58.594Z,36.20
2018-04-11T12:30:27.902Z,34.70
2018-04-11T12:32:56.142Z,42.70
2018-04-11T12:35:25.143Z,37.30
2018-04-11T12:37:54.215Z,35.90
2018-04-11T12:40:22.443Z,35.33
2018-04-11T12:42:50.682Z,47.80
2018-04-11T12:45:20.538Z,44.03
2018-04-11T12:47:49.998Z,40.63
2018-04-11T12:50:19.162Z,40.03
2018-04-11T12:52:47.692Z,35.77
2018-04-11T12:55:16.696Z,45.00
2018-04-11T12:57:45.719Z,36.03
2018-04-11T13:00:15.135Z,45.37
2018-04-11T13:02:43.370Z,43.13
2018-04-11T13:05:11.604Z,37.63
2018-04-11T13:07:40.198Z,42.63
2018-04-11T13:10:08.440Z,42.10
2018-04-11T13:12:38.267Z,46.87
2018-04-11T13:15:06.572Z,50.83
2018-04-11T13:17:36.158Z,50.43
2018-04-11T13:20:04.658Z,47.30
2018-04-11T13:22:34.399Z,48.70
2018-04-11T13:25:02.507Z,48.20
2018-04-11T13:27:30.742Z,53.30
2018-04-11T13:29:59.075Z,44.97
2018-04-11T13:32:27.311Z,46.27
2018-04-11T13:34:55.547Z,48.17
2018-04-11T13:37:24.930Z,47.53
2018-04-11T13:39:54.670Z,48.20
2018-04-11T13:42:23.670Z,46.13
2018-04-11T13:44:51.946Z,59.97
2018-04-11T13:47:20.956Z,40.97
2018-04-11T13:49:49.206Z,47.47
2018-04-11T13:52:18.339Z,44.03
2018-04-11T13:54:47.351Z,44.53
2018-04-11T13:57:16.934Z,43.00
2018-04-11T13:59:46.753Z,43.57
2018-04-11T14:02:15.637Z,41.77
2018-04-11T14:04:44.638Z,38.83
2018-04-11T14:07:13.286Z,36.53
2018-04-11T14:09:42.291Z,39.77
2018-04-11T14:12:11.870Z,39.63
2018-04-11T14:14:40.926Z,40.93
2018-04-11T14:17:09.164Z,37.87
2018-04-11T14:19:37.403Z,38.30
2018-04-11T14:22:06.174Z,34.90
2018-04-11T14:24:34.811Z,37.00
2018-04-11T14:27:03.050Z,38.53
2018-04-11T14:29:31.415Z,41.40
2018-04-11T14:31:59.646Z,37.87
2018-04-11T14:34:27.887Z,39.37
2018-04-11T14:37:01.379Z,38.47
2018-04-11T14:39:29.583Z,37.50
2018-04-11T14:41:57.818Z,39.63
2018-04-11T14:44:27.643Z,42.03
2018-04-11T14:46:55.877Z,48.07
2018-04-11T14:49:24.110Z,44.10
2018-04-11T14:51:58.215Z,38.90
2018-04-11T14:54:27.960Z,44.43
2018-04-11T14:56:56.199Z,52.30
2018-04-11T14:59:24.485Z,41.90
2018-04-11T15:01:52.726Z,44.13
2018-04-11T15:04:20.972Z,50.03
2018-04-11T15:06:49.271Z,52.50
2018-04-11T15:09:17.505Z,44.97
2018-04-11T15:11:45.739Z,49.70
2018-04-11T15:14:15.215Z,43.70
2018-04-11T15:16:46.485Z,47.17
2018-04-11T15:19:16.374Z,48.50
2018-04-11T15:21:45.388Z,49.33
2018-04-11T15:24:13.618Z,43.77
2018-04-11T15:26:42.695Z,44.30
2018-04-11T15:29:12.438Z,44.37
2018-04-11T15:31:40.679Z,39.30
2018-04-11T15:34:10.394Z,42.23
2018-04-11T15:36:38.512Z,23.63
2018-04-11T15:39:08.104Z,25.77
2018-04-11T15:41:36.251Z,28.70
2018-04-11T15:44:04.482Z,27.17
2018-04-11T15:46:38.587Z,25.00
2018-04-11T15:51:09.639Z,23.60
2018-04-11T15:53:38.687Z,23.33
2018-04-11T15:56:06.918Z,24.47
2018-04-11T15:58:35.161Z,21.23
2018-04-11T16:01:04.434Z,24.50
2018-04-11T16:03:33.071Z,24.40
2018-04-11T16:06:01.308Z,25.77
2018-04-11T16:08:30.951Z,23.60
2018-04-11T16:10:59.456Z,22.63
2018-04-11T16:13:27.694Z,23.30
2018-04-11T16:15:56.771Z,25.43
2018-04-11T16:18:26.286Z,25.60
2018-04-11T16:20:54.524Z,25.10
2018-04-11T16:23:22.800Z,45.23
2018-04-11T16:25:51.038Z,50.87
2018-04-11T16:28:20.412Z,39.50
2018-04-11T16:30:48.703Z,24.43
2018-04-11T16:33:16.938Z,22.43
2018-04-11T16:35:45.175Z,19.50
2018-04-11T16:38:15.121Z,18.27
2018-04-11T16:40:44.867Z,20.10
2018-04-11T16:43:13.103Z,19.43
2018-04-11T16:45:41.395Z,16.90
2018-04-11T16:48:09.633Z,17.20
2018-04-11T16:50:38.043Z,19.20
2018-04-11T16:53:06.536Z,17.40
2018-04-11T16:55:35.527Z,16.00
2018-04-11T16:58:03.763Z,16.73
2018-04-11T17:00:32.112Z,17.23
2018-04-11T17:03:01.859Z,18.07
2018-04-11T17:05:30.098Z,16.87
2018-04-11T17:07:58.558Z,16.73
2018-04-11T17:10:28.298Z,17.77
2018-04-11T17:12:56.548Z,16.37
2018-04-11T17:15:25.210Z,17.93
2018-04-11T17:17:53.448Z,16.03
2018-04-11T17:20:33.410Z,18.30
2018-04-11T17:23:13.530Z,17.73
2018-04-11T17:25:49.115Z,16.80
2018-04-11T17:31:21.661Z,16.80
2018-04-11T17:33:49.892Z,17.67
2018-04-11T17:36:19.267Z,16.47
2018-04-11T17:38:50.823Z,17.70
2018-04-11T17:41:19.492Z,17.40
2018-04-11T17:43:47.703Z,18.80
2018-04-11T17:46:16.538Z,19.00
2018-04-11T17:48:46.151Z,19.97
2018-04-11T17:51:14.262Z,23.10
2018-04-11T17:53:44.037Z,18.87
2018-04-11T17:56:12.275Z,18.63
2018-04-11T17:58:40.516Z,17.47
2018-04-11T18:01:11.688Z,13.80
2018-04-11T18:03:41.292Z,8.57
2018-04-11T18:06:09.520Z,8.57
2018-04-11T18:08:38.927Z,10.57
2018-04-11T18:11:07.161Z,8.83
2018-04-11T18:13:36.895Z,7.40
2018-04-11T18:16:06.331Z,6.27
2018-04-11T18:18:35.909Z,6.07
2018-04-11T18:21:04.016Z,5.17
2018-04-11T18:23:32.274Z,4.83
2018-04-11T18:26:00.503Z,5.13
2018-04-11T18:28:28.739Z,5.10
2018-04-11T18:31:01.537Z,5.43
2018-04-11T18:33:29.762Z,5.07
2018-04-11T18:35:58.761Z,5.57
2018-04-11T18:38:27.035Z,5.47
2018-04-11T18:40:55.258Z,5.20
2018-04-11T18:43:24.991Z,5.70
2018-04-11T18:45:53.304Z,5.20
2018-04-11T18:48:21.526Z,5.57
2018-04-11T18:50:50.518Z,11.10
2018-04-11T18:53:19.366Z,6.43
2018-04-11T18:55:49.103Z,6.77
2018-04-11T18:58:18.683Z,5.80
2018-04-11T19:00:47.318Z,6.33
2018-04-11T19:03:15.542Z,6.40
2018-04-11T19:05:45.279Z,7.10
2018-04-11T19:08:14.506Z,7.20
2018-04-11T19:10:43.490Z,6.03
2018-04-11T19:13:11.783Z,6.10
2018-04-11T19:15:43.719Z,6.33
2018-04-11T19:18:12.339Z,5.17
2018-04-11T19:20:42.071Z,5.17
2018-04-11T19:23:11.299Z,5.40
2018-04-11T19:25:40.296Z,5.83
2018-04-11T19:28:08.520Z,6.70
2018-04-11T19:30:37.547Z,4.80
2018-04-11T19:33:06.544Z,5.93
2018-04-11T19:35:34.766Z,4.90
2018-04-11T19:38:03.158Z,5.10
2018-04-11T19:40:31.332Z,5.47
2018-04-11T19:43:00.906Z,5.83
2018-04-11T19:45:29.052Z,5.53
2018-04-11T19:47:57.278Z,6.13
2018-04-11T19:50:25.507Z,7.30
2018-04-11T19:52:54.730Z,6.03
2018-04-11T19:55:23.750Z,6.30
2018-04-11T19:57:52.738Z,6.37
2018-04-11T20:00:22.507Z,6.40
2018-04-11T20:02:52.081Z,6.63
2018-04-11T20:05:20.195Z,7.27
2018-04-11T20:07:49.497Z,7.70
2018-04-11T20:10:19.066Z,7.20
2018-04-11T20:12:47.167Z,8.40
2018-04-11T20:15:15.894Z,8.07
2018-04-11T20:17:44.528Z,8.37
2018-04-11T20:20:12.746Z,9.10
2018-04-11T20:22:42.526Z,8.20
2018-04-11T20:25:11.020Z,8.80
2018-04-11T20:27:39.242Z,8.20
2018-04-11T20:30:07.863Z,9.17
2018-04-11T20:32:36.090Z,8.30
2018-04-11T20:35:04.318Z,9.23
2018-04-11T20:37:32.591Z,8.90
2018-04-11T20:40:01.579Z,8.50
2018-04-11T20:42:29.803Z,8.83
2018-04-11T20:44:58.834Z,9.10
2018-04-11T20:47:28.413Z,9.40
2018-04-11T20:49:56.510Z,9.43
2018-04-11T20:52:24.771Z,10.00
2018-04-11T20:54:53.003Z,8.77
2018-04-11T20:57:23.158Z,9.10
2018-04-11T20:59:51.291Z,9.93
2018-04-11T21:02:20.655Z,13.30
2018-04-11T21:04:48.883Z,9.27
2018-04-11T21:07:17.323Z,8.20
2018-04-11T21:09:47.055Z,10.63
2018-04-11T21:12:16.052Z,8.60
2018-04-11T21:14:44.455Z,10.80
2018-04-11T21:17:14.183Z,9.80
2018-04-11T21:19:43.758Z,9.23
2018-04-11T21:22:13.247Z,9.60
2018-04-11T21:24:42.700Z,10.77
2018-04-11T21:27:12.312Z,10.80
2018-04-11T21:29:40.572Z,8.93
2018-04-11T21:32:09.934Z,11.83
2018-04-11T21:34:38.171Z,11.40
2018-04-11T21:37:07.312Z,10.37
2018-04-11T21:39:36.891Z,10.90
2018-04-11T21:42:05.000Z,12.00
2018-04-11T21:44:33.319Z,11.27
2018-04-11T21:47:02.687Z,11.57
2018-04-11T21:49:30.943Z,10.93
2018-04-11T21:52:01.113Z,10.50
2018-04-11T21:54:30.021Z,10.97
2018-04-11T21:56:59.026Z,11.83
2018-04-11T21:59:28.058Z,11.83
2018-04-11T22:01:57.450Z,11.70
2018-04-11T22:04:25.683Z,12.97
2018-04-11T22:06:55.490Z,11.00
2018-04-11T22:09:23.718Z,13.03
2018-04-11T22:11:52.355Z,11.90
2018-04-11T22:14:21.534Z,12.13
2018-04-11T22:16:49.761Z,12.30
2018-04-11T22:19:18.390Z,13.30
2018-04-11T22:21:48.167Z,14.07
2018-04-11T22:24:16.406Z,13.77
2018-04-11T22:26:45.399Z,14.40
2018-04-11T22:29:13.675Z,14.57
2018-04-11T22:31:42.670Z,14.27
2018-04-11T22:34:10.907Z,15.13
2018-04-11T22:36:39.346Z,14.47
2018-04-11T22:39:09.087Z,16.30
2018-04-11T22:41:37.327Z,15.13
2018-04-11T22:44:05.760Z,16.53
2018-04-11T22:46:33.991Z,17.13
2018-04-11T22:49:03.365Z,21.90
2018-04-11T22:51:31.698Z,19.60
2018-04-11T22:54:00.327Z,18.70
2018-04-11T22:56:29.698Z,20.93
2018-04-11T22:59:01.653Z,23.07
2018-04-11T23:01:30.647Z,25.43
2018-04-11T23:03:58.878Z,25.97
2018-04-11T23:06:31.877Z,24.77
2018-04-11T23:09:00.379Z,28.40
2018-04-11T23:11:28.616Z,25.80
2018-04-11T23:13:57.107Z,27.60
2018-04-11T23:16:25.346Z,28.23
2018-04-11T23:18:54.714Z,30.33
2018-04-11T23:21:23.339Z,31.20
2018-04-11T23:23:53.079Z,33.30
2018-04-11T23:26:22.082Z,31.33
2018-04-11T23:28:51.576Z,31.97
2018-04-11T23:31:19.786Z,35.63
2018-04-11T23:33:48.011Z,35.57
2018-04-11T23:36:18.651Z,34.13
2018-04-11T23:38:46.878Z,41.20
2018-04-11T23:41:15.924Z,44.63
2018-04-11T23:43:45.181Z,52.40
2018-04-11T23:46:14.179Z,48.03
2018-04-11T23:48:42.415Z,54.43
2018-04-11T23:51:10.678Z,56.47
2018-04-11T23:53:38.915Z,60.23
2018-04-11T23:56:07.155Z,63.80
2018-04-11T23:58:35.444Z,67.13
